Wilson Corner, South Dakota
Current Conditions -  °F | °C
As of 11:17 PM on Tuesday 21 Oct 2014 (Local Time) from KHEI Reporting Station
Clear Clear  
Wind Chill: 58°   Ceiling: Unl
Heat Index: 58°   Visibility: 10mi
Dew Point: 44°   Wind: 9mph
Humidity: 60%   Direction: 270°W
Pressure: 29.7"   Gusts: NA
Location:  45.8748°N, 103.314°W
Report Text: KHEI 220517Z AUTO 27008KT 10SM CLR 14/07 A2970 RMK AO2 WSHFT 0457 T01440067
Loading
Personal Weather Stations






























Interactive Weather Map
Tropical Storm Tracking
New forecast layout! Learn more

10-Day Weather Forecast

Advertisements
Track Severe Weather on mobile